San Bernardino International Airport
KSBD : now visible

Airfield :











YOU CAN JOIN US ON...

 
LOGIN :

Register | Disclaimer

   EN    FR    IT 

 









Legend :    VFR   Marginal VFR   IFR   Intensive IFR   Very Intensive IFR
Visi :
Ceiling :
>= 8 km
>= 3000ft
5 to 8 km
1000 to 3000 ft
1500m to 5 km
500 to 1000 ft
800 to 1500m
200 to 500 ft
< 800m
< 200 ft
Symbols :   Thunderstorms  Fog  Heavy snow  Heavy precipitations  Wind > 20 kt






- Airport Elevation : 1159 ft


KSBD - San Bernardino International

CURRENT METAR :
  • 151103Z AUTO 00000KT 10SM SCT029 BKN037 BKN044 11/09 A2994 RMK AO2 T01120085

EXPIRED METARs :
  • 151044Z AUTO 00000KT 10SM SCT035 BKN042 BKN050 12/09 A2994 RMK AO2 T01190087
  • 151020Z AUTO 00000KT 10SM BKN037 BKN046 12/09 A2994 RMK AO2 T01210088
  • 151000Z AUTO 00000KT 10SM SCT037 SCT043 BKN048 12/09 A2995 RMK AO2 T01220090
  • 150941Z AUTO 00000KT 10SM BKN037 OVC045 12/09 A2994 RMK AO2 T01220091
  • 150923Z AUTO 00000KT 10SM BKN039 OVC045 12/09 A2994 RMK AO2 T01230091
  • 150904Z AUTO 26003KT 10SM SCT023 BKN030 BKN039 13/09 A2993 RMK AO2 T01250092
  • 150840Z AUTO 00000KT 10SM SCT015 SCT024 BKN038 13/09 A2992 RMK AO2 T01250090
  • 150820Z AUTO 00000KT 10SM SCT015 BKN030 OVC036 13/09 A2992 RMK AO2 T01270092
  • 150801Z AUTO 30004KT 10SM SCT014 SCT021 OVC028 13/10 A2994 RMK AO2 T01300095

TAF KSBD
Valid from the 15 at 06:00 until the 16 at 06:00 UTC


150521Z 1506/1606 28010KT 4SM BR BKN025
FM151400 05010KT 6SM HZ SCT035
FM151700 27007KT P6SM BKN250
FM160200 VRB04KT P6SM SCT250



MET'MAP, your aeronautical weather chart ! - Copyright ORBIFLY December 2007 - Disclaimer

ORBIFLY MET'MAP TEAM :

Programming & Development : Alexandra Zaïnal
Concept & original design : Baudouin d'Aumeries
Assistance for programming : Marc-Olivier Méhu
Technical & hardware support : Manuel Goepfert

Contact : metmap@orbifly.com




SOURCES & CREDITS :

   NOAA       Earth
Advisory